Time;durP1;ratioP1;P1;durP2;ratioP2;P2;SDS_P1;SDS_P2;PMS_P1;PMS_P2;Temp;Humidity;BMP_temperature;BMP_pressure;BME280_temperature;BME280_humidity;BME280_pressure;Samples;Min_cycle;Max_cycle;Signal;HPM_P1;HPM_P2
2023/02/09 00:00:05;;;;;;;52.40;19.60;;;-3.80;99.90;;;;;;4972523;28;20634;-72
2023/02/09 00:02:35;;;;;;;49.77;19.97;;;-3.90;99.90;;;;;;4974227;28;20285;-72
2023/02/09 00:05:02;;;;;;;48.43;18.87;;;-3.90;99.90;;;;;;4970708;28;20253;-72
2023/02/09 00:07:29;;;;;;;53.90;20.33;;;-3.80;99.90;;;;;;4957177;28;20507;-72
2023/02/09 00:09:55;;;;;;;42.90;19.23;;;-3.80;99.90;;;;;;4974064;28;20206;-73
2023/02/09 00:15:08;;;;;;;46.27;20.73;;;-3.80;99.90;;;;;;4956708;28;20289;-74
2023/02/09 00:17:36;;;;;;;47.80;19.80;;;-3.80;99.90;;;;;;4973984;28;20192;-73
2023/02/09 00:20:04;;;;;;;47.37;19.90;;;-3.60;99.90;;;;;;4974033;28;20277;-72
2023/02/09 00:22:32;;;;;;;50.37;19.87;;;-3.70;99.90;;;;;;4956863;28;20555;-73
2023/02/09 00:24:59;;;;;;;50.83;21.23;;;-3.60;99.90;;;;;;4988531;28;20252;-73
2023/02/09 00:27:25;;;;;;;50.57;19.33;;;-3.60;99.90;;;;;;4973794;28;20236;-73
2023/02/09 00:29:52;;;;;;;49.53;19.50;;;-3.60;99.90;;;;;;4956853;28;20661;-74
2023/02/09 00:32:19;;;;;;;49.83;20.70;;;-3.60;99.90;;;;;;4988934;28;20202;-72
2023/02/09 00:34:46;;;;;;;44.70;19.17;;;-3.60;99.90;;;;;;4956208;28;20197;-73
2023/02/09 00:37:13;;;;;;;50.13;20.07;;;-3.60;99.90;;;;;;4973734;28;20195;-74
2023/02/09 00:39:40;;;;;;;49.90;20.47;;;-3.80;99.90;;;;;;4973845;28;20206;-73
2023/02/09 00:42:07;;;;;;;48.47;20.70;;;-3.70;99.90;;;;;;4957143;28;20221;-74
2023/02/09 00:44:34;;;;;;;50.40;20.30;;;-3.70;99.90;;;;;;4971759;28;20190;-74
2023/02/09 00:47:02;;;;;;;49.40;20.13;;;-3.70;99.90;;;;;;4988469;28;20225;-73
2023/02/09 00:49:29;;;;;;;42.93;19.13;;;-3.90;99.90;;;;;;4988647;28;20204;-74
2023/02/09 00:51:57;;;;;;;44.87;19.63;;;-3.70;99.90;;;;;;4988527;28;20628;-71
2023/02/09 00:54:24;;;;;;;46.77;19.30;;;-3.80;99.90;;;;;;4984382;28;20205;-71
2023/02/09 00:56:50;;;;;;;45.77;19.77;;;-3.80;99.90;;;;;;4988391;28;20201;-71
2023/02/09 00:59:17;;;;;;;49.07;19.47;;;-3.80;99.90;;;;;;4988885;28;20619;-73
2023/02/09 01:01:44;;;;;;;47.40;20.37;;;-3.80;99.90;;;;;;4973343;28;20622;-73
2023/02/09 01:04:11;;;;;;;51.43;20.37;;;-3.80;99.90;;;;;;4972055;28;20212;-72
2023/02/09 01:06:38;;;;;;;51.87;20.10;;;-3.80;99.90;;;;;;4973118;28;20633;-73
2023/02/09 01:09:05;;;;;;;47.40;20.30;;;-3.80;99.90;;;;;;4988621;28;20198;-72
2023/02/09 01:11:32;;;;;;;51.97;20.70;;;-3.80;99.90;;;;;;4972148;28;20238;-73
2023/02/09 01:13:59;;;;;;;45.30;20.70;;;-3.80;99.90;;;;;;4990601;28;20686;-79
2023/02/09 01:16:27;;;;;;;45.97;20.17;;;-3.80;99.90;;;;;;4992108;28;20202;-77
2023/02/09 01:18:54;;;;;;;47.63;20.37;;;-3.90;99.90;;;;;;4975471;28;20200;-76
2023/02/09 01:21:23;;;;;;;50.70;19.83;;;-3.80;99.90;;;;;;4973155;28;20566;-70
2023/02/09 01:23:50;;;;;;;48.77;20.53;;;-3.80;99.90;;;;;;4975436;28;20201;-75
2023/02/09 01:26:17;;;;;;;54.40;20.27;;;-3.80;99.90;;;;;;4977045;28;20631;-76
2023/02/09 01:28:48;;;;;;;49.13;20.03;;;-3.90;99.90;;;;;;4976403;28;20204;-77
2023/02/09 01:31:19;;;;;;;44.73;19.63;;;-3.90;99.90;;;;;;4991850;28;20681;-76
2023/02/09 01:33:47;;;;;;;47.17;19.77;;;-3.90;99.90;;;;;;4976882;28;20191;-76
2023/02/09 01:36:14;;;;;;;48.97;19.67;;;-3.90;99.90;;;;;;4972510;28;20213;-78
2023/02/09 01:38:41;;;;;;;52.33;19.73;;;-3.80;99.90;;;;;;4975684;28;20515;-77
2023/02/09 01:41:08;;;;;;;45.73;20.57;;;-3.90;99.90;;;;;;4975421;28;20213;-80
2023/02/09 01:43:49;;;;;;;48.10;20.03;;;-3.90;99.90;;;;;;4976574;28;20225;-79
2023/02/09 01:46:16;;;;;;;45.83;19.27;;;-3.90;99.90;;;;;;4965211;28;20250;-79
2023/02/09 01:48:43;;;;;;;49.40;19.73;;;-3.90;99.90;;;;;;4958788;28;20560;-76
2023/02/09 01:51:10;;;;;;;45.17;18.43;;;-3.90;99.90;;;;;;4959400;28;20212;-79
2023/02/09 01:53:37;;;;;;;47.87;18.40;;;-3.90;99.90;;;;;;4959581;28;20186;-78
2023/02/09 01:56:10;;;;;;;43.67;19.00;;;-3.90;99.90;;;;;;4959159;28;20202;-79
2023/02/09 01:58:37;;;;;;;48.37;18.27;;;-4.00;99.90;;;;;;4976690;28;20198;-76
2023/02/09 02:01:07;;;;;;;48.73;19.33;;;-4.00;99.90;;;;;;4974948;28;20205;-75
2023/02/09 02:03:34;;;;;;;46.77;18.80;;;-4.00;99.90;;;;;;4956346;28;20209;-73
2023/02/09 02:06:06;;;;;;;43.53;18.33;;;-4.20;99.90;;;;;;4957521;28;20222;-75
2023/02/09 02:08:42;;;;;;;47.27;18.77;;;-4.20;99.90;;;;;;4974198;28;20554;-77
2023/02/09 02:11:10;;;;;;;44.37;19.27;;;-4.30;99.90;;;;;;4971038;28;20647;-76
2023/02/09 02:13:36;;;;;;;47.23;19.50;;;-4.30;99.90;;;;;;4971550;28;20215;-74
2023/02/09 02:16:28;;;;;;;49.20;19.43;;;-4.30;99.90;;;;;;4956113;28;20197;-76
2023/02/09 02:19:06;;;;;;;49.37;18.27;;;-4.20;99.90;;;;;;4991333;28;20555;-77
2023/02/09 02:22:05;;;;;;;50.00;19.47;;;-4.10;99.90;;;;;;4974300;28;20647;-72
2023/02/09 02:24:38;;;;;;;45.80;18.67;;;-4.20;99.90;;;;;;4955614;28;20262;-77
2023/02/09 02:27:11;;;;;;;48.10;19.63;;;-4.20;99.90;;;;;;4958651;28;20248;-74
2023/02/09 02:29:50;;;;;;;50.97;18.87;;;-4.10;99.90;;;;;;4990975;28;20674;-76
2023/02/09 02:32:55;;;;;;;46.20;18.47;;;-4.20;99.90;;;;;;4958727;28;20201;-78
2023/02/09 02:35:50;;;;;;;46.53;17.90;;;-4.10;99.90;;;;;;4949991;28;20679;-78
2023/02/09 02:38:34;;;;;;;46.50;18.60;;;-4.10;99.90;;;;;;4958343;28;20205;-80
2023/02/09 02:41:19;;;;;;;50.07;19.73;;;-4.10;99.90;;;;;;4958619;28;20190;-78
2023/02/09 02:43:58;;;;;;;44.40;18.10;;;-4.10;99.90;;;;;;4975676;28;20253;-81
2023/02/09 02:46:29;;;;;;;42.80;18.53;;;-4.10;99.90;;;;;;4958107;28;20546;-76
2023/02/09 02:49:03;;;;;;;43.73;18.93;;;-4.10;99.90;;;;;;4975638;28;20296;-75
2023/02/09 02:51:52;;;;;;;48.73;19.03;;;-4.10;99.90;;;;;;4958178;28;20734;-81
2023/02/09 02:54:33;;;;;;;44.83;17.90;;;-4.20;99.90;;;;;;4958173;28;20199;-82
2023/02/09 02:57:04;;;;;;;45.97;19.43;;;-4.10;99.90;;;;;;4958049;28;20210;-80
2023/02/09 02:59:37;;;;;;;47.87;19.77;;;-4.10;99.90;;;;;;4967950;28;20208;-78
2023/02/09 03:02:09;;;;;;;48.20;19.47;;;-4.10;99.90;;;;;;4993503;28;20210;-78
2023/02/09 03:04:38;;;;;;;44.83;18.97;;;-4.00;99.90;;;;;;4994611;28;20601;-75
2023/02/09 03:07:07;;;;;;;46.67;19.90;;;-4.00;99.90;;;;;;4955448;28;20236;-81
2023/02/09 03:09:34;;;;;;;50.40;20.10;;;-4.00;99.90;;;;;;4947497;28;20721;-79
2023/02/09 03:12:16;;;;;;;49.67;19.37;;;-4.00;99.90;;;;;;4953168;28;20199;-76
2023/02/09 03:14:52;;;;;;;48.87;20.13;;;-3.90;99.90;;;;;;4955308;28;20210;-77
2023/02/09 03:17:48;;;;;;;45.30;19.40;;;-4.10;99.90;;;;;;4989966;28;20201;-82
2023/02/09 03:20:25;;;;;;;45.53;18.40;;;-4.10;99.90;;;;;;4975465;28;20646;-79
2023/02/09 03:22:59;;;;;;;43.53;17.73;;;-4.00;99.90;;;;;;4974895;28;20208;-79
2023/02/09 03:25:33;;;;;;;48.07;19.67;;;-4.10;99.90;;;;;;4972463;28;20196;-80
2023/02/09 03:28:08;;;;;;;47.60;18.70;;;-4.10;99.90;;;;;;4972031;28;20566;-79
2023/02/09 03:30:40;;;;;;;44.23;18.57;;;-4.00;99.90;;;;;;4956835;28;20200;-83
2023/02/09 03:33:21;;;;;;;44.80;18.83;;;-4.00;99.90;;;;;;4989826;28;20236;-81
2023/02/09 03:35:50;;;;;;;45.63;18.80;;;-4.10;99.90;;;;;;4988985;28;20649;-82
2023/02/09 03:38:17;;;;;;;41.80;18.60;;;-4.10;99.90;;;;;;4957311;28;20225;-77
2023/02/09 03:40:44;;;;;;;49.57;19.23;;;-4.20;99.90;;;;;;4957007;28;20204;-77
2023/02/09 03:43:12;;;;;;;46.67;19.20;;;-4.20;99.90;;;;;;4967036;28;20291;-81
2023/02/09 03:45:39;;;;;;;53.87;18.67;;;-4.20;99.90;;;;;;4973093;28;20198;-80
2023/02/09 03:48:06;;;;;;;42.67;18.50;;;-4.20;99.90;;;;;;4974605;28;20190;-81
2023/02/09 03:50:35;;;;;;;46.33;18.80;;;-4.20;99.90;;;;;;4973283;28;20197;-82
2023/02/09 03:53:05;;;;;;;46.23;18.17;;;-4.00;99.90;;;;;;4974598;28;20650;-83
2023/02/09 03:55:33;;;;;;;43.43;18.73;;;-4.00;99.90;;;;;;4972917;28;20217;-77
2023/02/09 03:58:00;;;;;;;48.20;19.40;;;-3.90;99.90;;;;;;4974595;28;20198;-76
2023/02/09 04:00:27;;;;;;;48.53;18.93;;;-3.80;99.90;;;;;;4972968;28;20208;-83
2023/02/09 04:02:55;;;;;;;48.60;19.50;;;-3.80;99.90;;;;;;4974482;28;20199;-84
2023/02/09 04:05:22;;;;;;;48.63;20.20;;;-3.70;99.90;;;;;;4972976;28;20240;-83
2023/02/09 04:07:49;;;;;;;44.27;19.23;;;-3.80;99.90;;;;;;4989321;28;20213;-84
2023/02/09 04:10:15;;;;;;;48.33;20.20;;;-3.70;99.90;;;;;;4974201;28;20204;-82
2023/02/09 04:12:42;;;;;;;51.80;19.80;;;-4.00;99.90;;;;;;4972562;28;20215;-82
2023/02/09 04:15:09;;;;;;;47.87;19.53;;;-4.10;99.90;;;;;;4972716;28;20194;-83
2023/02/09 04:17:36;;;;;;;48.40;19.80;;;-4.10;99.90;;;;;;4973929;28;20186;-77
2023/02/09 04:20:03;;;;;;;51.37;20.00;;;-4.00;99.90;;;;;;4972614;28;20256;-74
2023/02/09 04:22:30;;;;;;;53.10;19.37;;;-4.10;99.90;;;;;;4972782;28;20203;-79
2023/02/09 04:24:57;;;;;;;55.27;21.27;;;-4.10;99.90;;;;;;4972559;28;20536;-74
2023/02/09 04:27:26;;;;;;;51.17;19.83;;;-4.10;99.90;;;;;;4972580;28;20232;-76
2023/02/09 04:29:56;;;;;;;56.70;20.70;;;-4.10;99.90;;;;;;4973972;28;20539;-82
2023/02/09 04:32:22;;;;;;;49.87;20.57;;;-4.10;99.90;;;;;;4972750;28;20205;-77
2023/02/09 04:34:49;;;;;;;49.97;20.10;;;-4.20;99.90;;;;;;4988668;28;20201;-79
2023/02/09 04:37:22;;;;;;;49.60;20.07;;;-4.30;99.90;;;;;;4973697;28;20204;-79
2023/02/09 04:39:52;;;;;;;49.33;20.13;;;-4.10;99.90;;;;;;4972398;28;20213;-75
2023/02/09 04:42:19;;;;;;;51.60;20.53;;;-4.10;99.90;;;;;;4972306;28;20242;-81
2023/02/09 04:44:46;;;;;;;50.03;20.97;;;-4.00;99.90;;;;;;4972277;28;20206;-78
2023/02/09 04:47:13;;;;;;;60.60;21.17;;;-4.00;99.90;;;;;;4988558;28;20701;-81
2023/02/09 04:49:41;;;;;;;51.97;20.73;;;-4.20;99.90;;;;;;4988739;28;20209;-80
2023/02/09 04:52:08;;;;;;;51.77;20.87;;;-4.30;99.90;;;;;;4971877;28;20647;-81
2023/02/09 04:54:35;;;;;;;53.13;21.80;;;-4.30;99.90;;;;;;4963083;28;20225;-80
2023/02/09 04:59:47;;;;;;;51.63;20.87;;;-4.20;99.90;;;;;;4973618;28;20278;-81
2023/02/09 05:02:14;;;;;;;47.73;19.90;;;-4.00;99.90;;;;;;4972202;28;20193;-82
2023/02/09 05:04:41;;;;;;;52.77;21.03;;;-4.10;99.90;;;;;;4972238;28;20216;-80
2023/02/09 05:07:07;;;;;;;53.47;20.97;;;-4.40;99.90;;;;;;4966560;28;20224;-82
2023/02/09 05:09:35;;;;;;;56.40;21.67;;;-4.30;99.90;;;;;;4972146;28;20186;-81
2023/02/09 05:12:03;;;;;;;52.57;21.40;;;-4.40;99.90;;;;;;4971927;28;20217;-80
2023/02/09 05:14:30;;;;;;;50.50;21.00;;;-4.40;99.90;;;;;;4973698;28;20203;-82
2023/02/09 05:16:56;;;;;;;56.20;21.30;;;-4.30;99.90;;;;;;4972096;28;20546;-79
2023/02/09 05:19:23;;;;;;;54.80;20.93;;;-4.30;99.90;;;;;;4972254;28;20232;-77
2023/02/09 05:21:50;;;;;;;58.10;21.77;;;-4.30;99.90;;;;;;4988005;28;20211;-79
2023/02/09 05:24:17;;;;;;;53.00;22.27;;;-4.40;99.90;;;;;;4971948;28;20524;-78
2023/02/09 05:26:44;;;;;;;53.57;21.53;;;-4.40;99.90;;;;;;4971458;28;20709;-77
2023/02/09 05:29:11;;;;;;;56.63;20.90;;;-4.50;99.90;;;;;;4968430;28;20552;-79
2023/02/09 05:31:37;;;;;;;57.10;22.40;;;-4.50;99.90;;;;;;4954061;29;20194;-76
2023/02/09 05:34:05;;;;;;;53.13;21.77;;;-4.50;99.90;;;;;;4968746;28;20264;-80
2023/02/09 05:36:31;;;;;;;50.73;20.30;;;-4.50;99.90;;;;;;4958431;28;20189;-80
2023/02/09 05:38:58;;;;;;;63.23;21.93;;;-4.40;99.90;;;;;;4972460;28;20693;-79
2023/02/09 05:44:11;;;;;;;53.33;21.03;;;-4.30;99.90;;;;;;4987851;28;20194;-81
2023/02/09 05:46:37;;;;;;;52.30;21.60;;;-4.30;99.90;;;;;;4987749;28;20213;-81
2023/02/09 05:49:04;;;;;;;60.70;21.77;;;-4.30;99.90;;;;;;4971658;28;20600;-81
2023/02/09 05:51:31;;;;;;;51.00;20.63;;;-4.40;99.90;;;;;;4971767;28;20204;-80
2023/02/09 05:53:58;;;;;;;52.73;21.83;;;-4.50;99.90;;;;;;4971936;28;20244;-80
2023/02/09 05:56:25;;;;;;;50.13;20.43;;;-4.50;99.90;;;;;;4971379;28;20208;-79
2023/02/09 05:58:51;;;;;;;59.07;21.67;;;-4.50;99.90;;;;;;4990372;28;20213;-80
2023/02/09 06:01:18;;;;;;;55.20;22.30;;;-4.50;99.90;;;;;;4991356;28;20201;-79
2023/02/09 06:03:48;;;;;;;56.63;21.87;;;-4.60;99.90;;;;;;4974963;28;20202;-79
2023/02/09 06:06:15;;;;;;;51.03;21.37;;;-4.60;99.90;;;;;;4991051;28;20221;-80
2023/02/09 06:08:42;;;;;;;56.10;22.27;;;-4.60;99.90;;;;;;4991355;28;20243;-80
2023/02/09 06:11:09;;;;;;;53.73;20.63;;;-4.80;99.90;;;;;;4974996;28;20209;-79
2023/02/09 06:13:35;;;;;;;49.83;20.53;;;-4.80;99.90;;;;;;4976508;28;20617;-80
2023/02/09 06:16:02;;;;;;;52.57;21.53;;;-4.80;99.90;;;;;;4971590;28;20214;-79
2023/02/09 06:18:29;;;;;;;55.23;22.47;;;-4.80;99.90;;;;;;4956903;29;20198;-80
2023/02/09 06:20:56;;;;;;;57.80;20.80;;;-4.70;99.90;;;;;;4973359;28;20193;-76
2023/02/09 06:23:24;;;;;;;54.30;21.10;;;-4.70;99.90;;;;;;4991000;28;20623;-76
2023/02/09 06:25:52;;;;;;;59.10;21.97;;;-4.80;99.90;;;;;;4990800;28;20228;-77
2023/02/09 06:28:19;;;;;;;56.93;21.93;;;-4.70;99.90;;;;;;4974674;28;20230;-75
2023/02/09 06:30:52;;;;;;;52.43;21.17;;;-4.70;99.90;;;;;;4976053;28;20186;-78
2023/02/09 06:33:23;;;;;;;55.13;21.90;;;-4.70;99.90;;;;;;4974824;28;20207;-77
2023/02/09 06:35:50;;;;;;;54.20;21.57;;;-4.80;99.90;;;;;;4958267;28;20201;-74
2023/02/09 06:38:18;;;;;;;52.60;21.03;;;-4.80;99.90;;;;;;4974562;28;20212;-74
2023/02/09 06:40:45;;;;;;;50.63;20.50;;;-4.90;99.90;;;;;;4975517;28;20189;-76
2023/02/09 06:43:13;;;;;;;56.47;21.90;;;-5.00;99.90;;;;;;4973379;28;20600;-77
2023/02/09 06:45:40;;;;;;;58.93;22.13;;;-5.00;99.90;;;;;;4971364;28;20262;-80
2023/02/09 06:48:07;;;;;;;57.90;21.30;;;-5.10;99.90;;;;;;4960043;28;20925;-76
2023/02/09 06:50:35;;;;;;;53.70;21.07;;;-5.00;99.90;;;;;;4975593;28;20196;-75
2023/02/09 06:53:03;;;;;;;58.53;23.23;;;-5.00;99.90;;;;;;4974264;28;20663;-77
2023/02/09 06:55:30;;;;;;;56.60;22.33;;;-4.90;99.90;;;;;;4958575;28;20213;-72
2023/02/09 06:57:57;;;;;;;50.33;22.30;;;-5.00;99.90;;;;;;4990645;28;20551;-77
2023/02/09 07:00:24;;;;;;;56.77;22.97;;;-5.00;99.90;;;;;;4990306;28;20620;-75
2023/02/09 07:02:52;;;;;;;59.23;22.90;;;-5.10;99.90;;;;;;4990115;28;20212;-80
2023/02/09 07:05:19;;;;;;;59.33;22.20;;;-5.20;99.90;;;;;;4975029;28;20240;-77
2023/02/09 07:07:46;;;;;;;56.67;23.50;;;-5.30;99.90;;;;;;4989791;28;20571;-76
2023/02/09 07:10:15;;;;;;;60.43;23.07;;;-5.30;99.90;;;;;;4974411;28;20197;-77
2023/02/09 07:12:42;;;;;;;58.50;23.10;;;-5.40;99.90;;;;;;4989770;28;20229;-76
2023/02/09 07:15:11;;;;;;;55.63;22.27;;;-5.30;99.90;;;;;;4989849;28;20197;-77
2023/02/09 07:17:38;;;;;;;56.00;22.17;;;-5.20;99.90;;;;;;4990176;28;20655;-77
2023/02/09 07:20:06;;;;;;;55.33;22.97;;;-5.10;99.90;;;;;;4974062;28;20201;-77
2023/02/09 07:22:33;;;;;;;63.50;24.40;;;-5.10;99.90;;;;;;4973681;28;20198;-77
2023/02/09 07:25:00;;;;;;;58.37;23.50;;;-5.10;99.90;;;;;;4973650;28;20185;-77
2023/02/09 07:27:27;;;;;;;57.47;23.63;;;-5.10;99.90;;;;;;4974629;28;20217;-76
2023/02/09 07:29:53;;;;;;;62.10;23.67;;;-5.10;99.90;;;;;;4973671;28;20194;-77
2023/02/09 07:32:22;;;;;;;60.60;24.00;;;-5.00;99.90;;;;;;4973668;28;20198;-77
2023/02/09 07:34:49;;;;;;;63.13;23.37;;;-5.10;99.90;;;;;;4989828;28;20248;-75
2023/02/09 07:37:16;;;;;;;56.17;23.33;;;-5.00;99.90;;;;;;4974676;28;20197;-76
2023/02/09 07:39:43;;;;;;;58.93;23.00;;;-4.90;99.90;;;;;;4973203;28;20197;-76
2023/02/09 07:42:10;;;;;;;57.73;23.57;;;-5.00;99.90;;;;;;4962823;28;20235;-77
2023/02/09 07:44:37;;;;;;;63.13;24.17;;;-5.10;99.90;;;;;;4955338;29;20564;-78
2023/02/09 07:47:04;;;;;;;57.23;22.63;;;-5.00;99.90;;;;;;4953760;29;20607;-78
2023/02/09 07:49:33;;;;;;;64.83;23.60;;;-4.90;99.90;;;;;;4938154;29;20190;-77
2023/02/09 07:52:00;;;;;;;56.30;22.67;;;-4.70;99.90;;;;;;4953557;29;20202;-78
2023/02/09 07:54:29;;;;;;;59.30;22.77;;;-4.60;99.90;;;;;;4953840;29;20195;-82
2023/02/09 07:56:56;;;;;;;59.83;23.63;;;-4.70;99.90;;;;;;4954955;29;20562;-75
2023/02/09 07:59:22;;;;;;;57.97;23.03;;;-4.70;99.90;;;;;;4969965;28;20209;-75
2023/02/09 08:01:50;;;;;;;57.03;24.13;;;-4.60;99.90;;;;;;4950018;28;20210;-74
2023/02/09 08:04:17;;;;;;;54.13;22.10;;;-4.40;99.90;;;;;;4974077;28;20647;-74
2023/02/09 08:06:45;;;;;;;54.77;22.83;;;-4.00;99.90;;;;;;4972854;28;20244;-74
2023/02/09 08:09:15;;;;;;;58.40;23.83;;;-3.30;99.90;;;;;;4972909;28;20225;-70
2023/02/09 08:12:00;;;;;;;56.00;21.70;;;-2.50;99.90;;;;;;4972541;28;20197;-72
2023/02/09 08:14:34;;;;;;;51.83;22.37;;;-1.90;99.90;;;;;;4972729;28;20206;-77
2023/02/09 08:17:18;;;;;;;52.53;22.93;;;-1.40;99.90;;;;;;4972461;28;20193;-74
2023/02/09 08:20:14;;;;;;;59.80;22.93;;;-1.30;99.90;;;;;;4973933;28;20699;-75
2023/02/09 08:22:45;;;;;;;57.20;22.20;;;-0.90;99.90;;;;;;4969215;28;20202;-77
2023/02/09 08:25:15;;;;;;;54.97;22.97;;;-0.60;99.90;;;;;;4972556;28;20300;-77
2023/02/09 08:27:43;;;;;;;51.93;22.63;;;-0.50;99.90;;;;;;4988561;28;20265;-75
2023/02/09 08:30:11;;;;;;;60.33;23.87;;;-0.10;99.90;;;;;;4972504;28;20200;-77
2023/02/09 08:32:38;;;;;;;54.97;22.90;;;0.10;99.90;;;;;;4972443;28;20552;-78
2023/02/09 08:35:11;;;;;;;56.90;23.03;;;0.30;99.90;;;;;;4972280;28;20229;-75
2023/02/09 08:37:38;;;;;;;55.87;23.53;;;0.60;99.90;;;;;;4972248;28;20207;-74
2023/02/09 08:40:05;;;;;;;52.87;22.80;;;0.50;99.90;;;;;;4972304;28;20192;-74
2023/02/09 08:42:32;;;;;;;54.73;22.53;;;0.80;99.90;;;;;;4979800;28;20704;-79
2023/02/09 08:44:59;;;;;;;56.80;23.50;;;1.00;99.90;;;;;;4975463;28;20227;-78
2023/02/09 08:47:26;;;;;;;55.10;23.23;;;1.20;99.90;;;;;;4975410;28;20379;-74
2023/02/09 08:49:53;;;;;;;52.50;24.33;;;0.70;99.90;;;;;;4960696;28;20212;-77
2023/02/09 08:52:20;;;;;;;51.60;23.10;;;0.80;99.90;;;;;;4971503;28;20192;-76
2023/02/09 08:54:47;;;;;;;56.03;23.87;;;0.90;99.90;;;;;;4953745;28;20532;-71
2023/02/09 08:57:14;;;;;;;56.97;23.80;;;0.70;99.90;;;;;;4955224;28;20204;-73
2023/02/09 08:59:41;;;;;;;52.73;23.83;;;0.90;99.90;;;;;;4970504;28;20201;-72
2023/02/09 09:02:07;;;;;;;54.23;23.10;;;1.10;99.90;;;;;;4983390;28;20635;-76
2023/02/09 09:04:34;;;;;;;48.20;23.10;;;1.10;99.90;;;;;;4968935;28;20551;-75
2023/02/09 09:07:01;;;;;;;55.50;22.57;;;1.50;99.90;;;;;;4952904;28;20213;-74
2023/02/09 09:09:28;;;;;;;53.87;23.73;;;1.80;99.90;;;;;;4972128;28;20213;-76
2023/02/09 09:11:55;;;;;;;50.90;22.77;;;2.10;99.90;;;;;;4968814;28;20651;-79
2023/02/09 09:14:22;;;;;;;49.63;22.73;;;2.20;99.90;;;;;;4968102;28;20217;-78
2023/02/09 09:16:49;;;;;;;49.27;21.97;;;2.40;99.90;;;;;;4979918;28;20194;-76
2023/02/09 09:19:16;;;;;;;51.47;22.67;;;2.10;99.90;;;;;;4992439;28;20501;-76
2023/02/09 09:21:43;;;;;;;48.93;22.23;;;2.40;99.90;;;;;;4975115;28;20417;-77
2023/02/09 09:24:10;;;;;;;47.73;22.83;;;2.70;99.90;;;;;;4975033;28;20190;-79
2023/02/09 09:26:36;;;;;;;48.57;22.40;;;3.10;99.90;;;;;;4992529;28;20194;-80
2023/02/09 09:29:03;;;;;;;50.60;21.87;;;3.10;99.90;;;;;;4974918;28;20228;-79
2023/02/09 09:31:32;;;;;;;50.13;21.80;;;3.30;99.90;;;;;;4975226;28;20194;-75
2023/02/09 09:33:59;;;;;;;52.40;22.73;;;3.60;99.90;;;;;;4977521;28;20261;-79
2023/02/09 09:36:26;;;;;;;47.13;21.47;;;3.60;99.90;;;;;;4996288;28;20196;-80
2023/02/09 09:38:52;;;;;;;47.83;22.33;;;3.60;99.90;;;;;;4978363;28;20208;-73
2023/02/09 09:41:27;;;;;;;44.87;21.80;;;3.90;99.90;;;;;;4968427;28;20230;-73
2023/02/09 09:43:54;;;;;;;47.43;21.47;;;3.90;99.90;;;;;;4989793;28;20240;-71
2023/02/09 09:46:35;;;;;;;46.33;20.93;;;3.80;99.90;;;;;;4959600;28;20205;-77
2023/02/09 09:49:02;;;;;;;47.00;21.33;;;3.90;99.90;;;;;;4956866;29;20268;-80
2023/02/09 09:51:41;;;;;;;46.20;20.87;;;3.90;99.90;;;;;;4955553;28;20641;-82
2023/02/09 09:54:18;;;;;;;43.50;20.47;;;4.20;99.90;;;;;;4977880;28;20214;-78
2023/02/09 09:56:46;;;;;;;40.57;20.03;;;4.60;99.90;;;;;;4976408;28;20243;-73
2023/02/09 09:59:19;;;;;;;42.90;20.77;;;4.70;99.90;;;;;;4959386;28;20228;-73
2023/02/09 10:01:49;;;;;;;41.87;20.70;;;4.90;99.90;;;;;;4959071;28;20642;-76
2023/02/09 10:04:16;;;;;;;42.23;20.00;;;5.20;99.90;;;;;;4976164;28;20200;-73
2023/02/09 10:06:46;;;;;;;42.93;20.47;;;5.20;99.90;;;;;;4975159;28;20220;-73
2023/02/09 10:09:27;;;;;;;39.60;19.30;;;5.20;99.90;;;;;;4958842;28;20579;-73
2023/02/09 10:12:05;;;;;;;41.70;20.57;;;5.50;99.90;;;;;;4975879;28;20211;-71
2023/02/09 10:14:32;;;;;;;40.17;19.17;;;5.60;99.90;;;;;;4975359;28;20646;-72
2023/02/09 10:16:59;;;;;;;38.40;18.53;;;5.50;99.90;;;;;;4958645;28;20204;-71
2023/02/09 10:19:28;;;;;;;39.50;19.20;;;5.50;99.90;;;;;;4976441;28;20194;-72
2023/02/09 10:21:54;;;;;;;39.97;18.67;;;5.80;99.90;;;;;;4976249;28;20208;-71
2023/02/09 10:24:30;;;;;;;35.40;18.07;;;6.40;99.90;;;;;;4975907;28;20200;-70
2023/02/09 10:27:23;;;;;;;38.23;18.23;;;6.20;99.90;;;;;;4958776;28;20272;-76
2023/02/09 10:29:54;;;;;;;40.03;18.30;;;6.20;99.90;;;;;;4975920;28;20197;-73
2023/02/09 10:32:37;;;;;;;36.43;17.17;;;5.90;99.90;;;;;;4974553;28;20208;-78
2023/02/09 10:35:24;;;;;;;36.43;16.87;;;5.40;99.90;;;;;;4975830;28;20228;-75
2023/02/09 10:37:59;;;;;;;36.93;16.40;;;5.10;99.90;;;;;;4958238;28;20203;-76
2023/02/09 10:40:31;;;;;;;36.10;17.57;;;5.20;99.90;;;;;;4975546;28;20645;-75
2023/02/09 10:43:04;;;;;;;36.80;17.67;;;5.40;99.90;;;;;;4990511;28;20332;-75
2023/02/09 10:45:36;;;;;;;36.47;17.07;;;5.70;99.90;;;;;;4958036;28;20205;-75
2023/02/09 10:48:24;;;;;;;35.73;16.63;;;5.20;99.90;;;;;;4958007;28;20222;-76
2023/02/09 10:51:07;;;;;;;32.27;16.33;;;5.50;99.90;;;;;;4958462;28;20219;-76
2023/02/09 10:53:59;;;;;;;33.07;16.10;;;5.50;99.90;;;;;;4958350;28;20194;-77
2023/02/09 10:56:40;;;;;;;32.80;15.20;;;5.50;99.90;;;;;;4975260;28;20197;-76
2023/02/09 10:59:20;;;;;;;32.40;16.33;;;5.90;99.50;;;;;;4954196;28;20242;-76
2023/02/09 11:01:58;;;;;;;35.93;16.13;;;6.40;98.90;;;;;;4967495;28;20209;-75
2023/02/09 11:04:35;;;;;;;30.97;15.77;;;6.10;96.30;;;;;;4972813;28;20596;-77
2023/02/09 11:07:09;;;;;;;32.77;15.53;;;5.50;96.90;;;;;;4975235;28;20235;-76
2023/02/09 11:09:44;;;;;;;36.00;16.60;;;4.90;99.90;;;;;;4957662;28;20229;-75
2023/02/09 11:12:12;;;;;;;32.63;15.93;;;4.60;99.90;;;;;;4957563;28;20200;-76
2023/02/09 11:14:41;;;;;;;33.03;15.93;;;4.40;99.90;;;;;;4957625;28;20211;-75
2023/02/09 11:17:23;;;;;;;35.47;15.73;;;4.70;99.90;;;;;;4957822;28;20210;-75
2023/02/09 11:19:57;;;;;;;30.77;15.37;;;4.70;99.90;;;;;;4973900;28;20196;-74
2023/02/09 11:22:51;;;;;;;30.67;15.90;;;4.60;99.90;;;;;;4957643;28;20244;-72
2023/02/09 11:25:29;;;;;;;37.23;16.33;;;4.10;99.90;;;;;;4973472;28;20198;-73
2023/02/09 11:28:14;;;;;;;33.13;16.63;;;4.20;99.90;;;;;;4974707;28;20204;-73
2023/02/09 11:30:59;;;;;;;33.03;16.10;;;3.80;99.90;;;;;;4974930;28;20562;-74
2023/02/09 11:34:03;;;;;;;35.10;16.43;;;3.70;99.90;;;;;;4974719;28;20198;-73
2023/02/09 11:36:39;;;;;;;35.40;16.67;;;3.40;99.90;;;;;;4974353;28;20278;-74
2023/02/09 11:39:21;;;;;;;36.63;16.33;;;3.20;99.90;;;;;;4974782;28;20197;-75
2023/02/09 11:44:57;;;;;;;35.60;16.30;;;3.10;99.90;;;;;;4974499;28;20200;-72
2023/02/09 11:47:52;;;;;;;31.47;15.00;;;3.10;99.90;;;;;;4974411;28;20300;-74
2023/02/09 11:50:42;;;;;;;30.87;14.77;;;3.00;99.90;;;;;;4957330;28;20194;-73
2023/02/09 11:53:16;;;;;;;32.27;15.20;;;3.40;99.90;;;;;;4957225;28;20208;-73
2023/02/09 11:55:56;;;;;;;30.23;15.17;;;4.20;99.90;;;;;;4973538;28;20206;-74
2023/02/09 11:58:35;;;;;;;30.50;15.27;;;4.90;99.90;;;;;;4957048;28;20514;-74
2023/02/09 12:01:25;;;;;;;28.93;14.90;;;5.40;99.90;;;;;;4974208;28;20214;-73
2023/02/09 12:04:04;;;;;;;33.03;14.57;;;6.10;99.20;;;;;;4972927;28;20211;-73
2023/02/09 12:06:53;;;;;;;29.47;15.40;;;6.70;96.10;;;;;;4972727;28;20218;-76
2023/02/09 12:09:44;;;;;;;32.10;15.50;;;6.80;94.20;;;;;;4972850;28;20232;-76
2023/02/09 12:12:27;;;;;;;27.07;14.60;;;7.50;92.90;;;;;;4956208;28;20204;-76
2023/02/09 12:15:05;;;;;;;27.93;13.10;;;7.70;91.30;;;;;;4956677;28;20576;-75
2023/02/09 12:17:52;;;;;;;27.97;13.93;;;7.60;89.00;;;;;;4957030;28;20220;-73
2023/02/09 12:20:39;;;;;;;30.70;14.90;;;7.00;89.80;;;;;;4988880;28;20208;-75
2023/02/09 12:23:09;;;;;;;29.33;14.20;;;7.20;91.10;;;;;;4956481;28;20196;-73
2023/02/09 12:25:49;;;;;;;28.60;13.57;;;7.00;90.00;;;;;;4973707;28;20214;-73
2023/02/09 12:28:36;;;;;;;26.43;13.37;;;7.30;89.10;;;;;;4973798;28;20225;-75
2023/02/09 12:31:08;;;;;;;26.73;12.43;;;7.30;86.50;;;;;;4956492;28;20647;-75
2023/02/09 12:34:01;;;;;;;23.63;11.70;;;7.20;89.00;;;;;;4973530;28;20645;-75
2023/02/09 12:36:33;;;;;;;20.37;10.70;;;7.50;84.20;;;;;;4954904;28;20300;-76
2023/02/09 12:39:19;;;;;;;21.57;11.20;;;7.40;84.10;;;;;;4971285;28;20634;-75
2023/02/09 12:41:49;;;;;;;19.70;9.97;;;7.50;81.50;;;;;;4972902;28;20198;-76
2023/02/09 12:44:17;;;;;;;21.60;10.37;;;7.80;78.30;;;;;;4971660;28;20189;-75
2023/02/09 12:46:44;;;;;;;18.60;9.90;;;8.50;78.80;;;;;;4970744;28;20276;-77
2023/02/09 12:49:10;;;;;;;20.17;10.90;;;9.20;75.30;;;;;;4953725;28;20274;-75
2023/02/09 12:51:43;;;;;;;22.00;10.30;;;9.70;74.30;;;;;;4974332;28;20549;-78
2023/02/09 12:54:40;;;;;;;21.60;10.93;;;9.40;71.10;;;;;;4955313;28;20198;-77
2023/02/09 12:57:17;;;;;;;21.57;11.30;;;9.30;71.70;;;;;;4987278;28;20209;-82
2023/02/09 12:59:58;;;;;;;19.43;10.17;;;9.00;73.10;;;;;;4973434;28;20201;-70
2023/02/09 13:02:28;;;;;;;17.43;10.27;;;8.70;73.20;;;;;;4966178;28;20216;-77